Time;durP1;ratioP1;P1;durP2;ratioP2;P2;SDS_P1;SDS_P2;PMS_P1;PMS_P2;Temp;Humidity;BMP_temperature;BMP_pressure;BME280_temperature;BME280_humidity;BME280_pressure;Samples;Min_cycle;Max_cycle;Signal;HPM_P1;HPM_P2
2022/12/30 00:01:44;;;;;;;19.58;3.03;;;;;;;-143.48;88.43;118439.88;5054210;28;20024;-67
2022/12/30 00:04:09;;;;;;;17.27;2.78;;;;;;;-143.48;88.40;118439.88;5054302;28;20021;-67
2022/12/30 00:06:34;;;;;;;21.50;2.88;;;;;;;-143.48;88.77;118439.88;5054523;28;20425;-68
2022/12/30 00:09:00;;;;;;;15.55;3.03;;;;;;;-143.48;88.97;118439.88;5054261;28;20016;-68
2022/12/30 00:11:28;;;;;;;22.75;3.00;;;;;;;-143.48;89.21;118439.88;5054334;28;20053;-67
2022/12/30 00:33:42;;;;;;;17.48;2.97;;;;;;;-143.48;89.67;118439.88;5054330;28;20047;-67
2022/12/30 00:36:08;;;;;;;16.92;2.55;;;;;;;-143.48;89.76;118439.88;5053819;28;20503;-67
2022/12/30 00:38:33;;;;;;;23.73;3.13;;;;;;;-143.48;89.65;118439.88;5053887;28;20103;-67
2022/12/30 00:43:42;;;;;;;13.70;2.70;;;;;;;-143.48;89.28;118439.88;5053631;28;20031;-68
2022/12/30 00:46:07;;;;;;;19.38;2.75;;;;;;;-143.48;89.40;118439.88;5053785;28;20391;-68
2022/12/30 00:56:44;;;;;;;15.15;2.47;;;;;;;-143.48;89.59;118439.88;5053837;28;20158;-68
2022/12/30 00:59:10;;;;;;;17.17;2.70;;;;;;;-143.48;89.96;118439.88;5053507;28;20120;-67
2022/12/30 01:01:35;;;;;;;19.00;2.17;;;;;;;-143.48;89.88;118439.88;5053540;28;20100;-68
2022/12/30 01:04:01;;;;;;;14.45;2.40;;;;;;;-143.48;89.54;118439.88;5053768;28;20037;-67
2022/12/30 01:06:26;;;;;;;18.65;2.55;;;;;;;-143.48;89.62;118439.88;5053726;28;20083;-68
2022/12/30 01:08:51;;;;;;;10.88;2.80;;;;;;;-143.48;89.64;118439.88;5053580;28;20113;-68
2022/12/30 01:11:17;;;;;;;14.23;2.63;;;;;;;-143.48;89.55;118439.88;5053542;28;20029;-69
2022/12/30 01:13:43;;;;;;;12.73;2.33;;;;;;;-143.48;89.71;118439.88;5053436;28;20032;-67
2022/12/30 01:16:12;;;;;;;18.52;3.03;;;;;;;-143.48;89.85;118439.88;5053389;28;20476;-67
2022/12/30 01:18:39;;;;;;;20.40;2.55;;;;;;;-143.48;89.73;118439.88;5053614;28;20029;-67
2022/12/30 01:21:06;;;;;;;14.25;2.50;;;;;;;-143.48;89.97;118439.88;5053304;28;20027;-68
2022/12/30 01:23:31;;;;;;;12.40;1.98;;;;;;;-143.48;89.66;118439.88;5053287;28;20165;-67
2022/12/30 01:26:00;;;;;;;15.98;2.42;;;;;;;-143.48;89.60;118439.88;5053178;28;20084;-67
2022/12/30 01:28:32;;;;;;;15.05;2.75;;;;;;;-143.48;89.75;118439.88;5053005;28;20056;-68
2022/12/30 01:30:59;;;;;;;12.45;1.98;;;;;;;-143.48;90.02;118439.88;5053431;28;20021;-68
2022/12/30 01:33:26;;;;;;;16.52;2.47;;;;;;;-143.48;89.79;118439.88;5053542;28;20079;-68
2022/12/30 01:35:52;;;;;;;17.63;2.35;;;;;;;-143.48;89.47;118439.88;5053101;28;20082;-67
2022/12/30 01:38:17;;;;;;;13.82;2.28;;;;;;;-143.48;89.71;118439.88;5035351;28;20182;-67
2022/12/30 01:40:43;;;;;;;11.35;1.95;;;;;;;-143.48;89.90;118439.88;5053155;28;20111;-67
2022/12/30 01:43:13;;;;;;;14.85;3.17;;;;;;;-143.48;90.14;118439.88;5056993;28;20132;-68
2022/12/30 01:45:43;;;;;;;9.98;1.92;;;;;;;-143.48;90.15;118439.88;5039151;28;20392;-68
2022/12/30 01:48:21;;;;;;;21.85;2.33;;;;;;;-143.48;89.86;118439.88;5056957;28;20075;-67
2022/12/30 01:50:49;;;;;;;16.30;2.10;;;;;;;-143.48;89.79;118439.88;5056808;28;20337;-68
2022/12/30 01:53:20;;;;;;;18.95;2.10;;;;;;;-143.48;89.81;118439.88;5056863;28;20037;-67
2022/12/30 01:55:57;;;;;;;15.98;2.08;;;;;;;-143.48;90.06;118439.88;5056638;28;20033;-67
2022/12/30 01:58:33;;;;;;;16.80;2.63;;;;;;;-143.48;90.13;118439.88;5056885;28;20041;-67
2022/12/30 02:00:58;;;;;;;15.23;2.60;;;;;;;-143.48;89.55;118439.88;5056409;28;20570;-67
2022/12/30 02:03:32;;;;;;;9.38;2.30;;;;;;;-143.48;89.83;118439.88;5056842;28;20028;-68
2022/12/30 02:05:57;;;;;;;13.13;2.00;;;;;;;-143.48;90.16;118439.88;5056781;28;20108;-68
2022/12/30 02:08:23;;;;;;;10.85;2.13;;;;;;;-143.48;90.00;118439.88;5056349;28;20104;-68
2022/12/30 02:10:52;;;;;;;11.48;2.00;;;;;;;-143.48;90.02;118439.88;5056426;28;20078;-67
2022/12/30 02:13:20;;;;;;;9.57;1.98;;;;;;;-143.48;89.81;118439.88;5056588;28;20033;-68
2022/12/30 02:16:14;;;;;;;9.38;2.10;;;;;;;-143.48;90.06;118439.88;5056420;28;20100;-68
2022/12/30 02:18:48;;;;;;;8.55;2.03;;;;;;;-143.48;90.06;118439.88;5056486;28;20029;-68
2022/12/30 02:21:40;;;;;;;12.50;2.33;;;;;;;-143.48;90.52;118439.88;5056152;28;20036;-68
2022/12/30 02:24:15;;;;;;;12.10;2.50;;;;;;;-143.48;90.09;118439.88;5056253;28;20100;-68
2022/12/30 02:27:06;;;;;;;14.95;2.40;;;;;;;-143.48;90.25;118439.88;5038159;28;20131;-67
2022/12/30 02:30:13;;;;;;;11.82;2.22;;;;;;;-143.48;90.40;118439.88;5056315;28;20120;-68
2022/12/30 02:33:05;;;;;;;16.38;2.20;;;;;;;-143.48;90.43;118439.88;5055928;28;20032;-68
2022/12/30 02:35:55;;;;;;;10.85;2.35;;;;;;;-143.48;90.32;118439.88;5056028;28;20013;-68
2022/12/30 02:38:43;;;;;;;14.75;2.33;;;;;;;-143.48;90.32;118439.88;5055983;28;20063;-68
2022/12/30 02:47:01;;;;;;;10.80;2.95;;;;;;;-143.48;90.20;118439.88;5056001;28;20032;-68
2022/12/30 02:49:30;;;;;;;14.27;2.70;;;;;;;-143.48;90.35;118439.88;5055995;28;20028;-67
2022/12/30 02:52:17;;;;;;;16.80;2.60;;;;;;;-143.48;90.48;118439.88;5055497;28;20028;-67
2022/12/30 02:54:47;;;;;;;12.65;2.10;;;;;;;-143.48;90.38;118439.88;5038041;28;20024;-67
2022/12/30 02:57:33;;;;;;;10.95;2.53;;;;;;;-143.48;90.42;118439.88;5055609;28;20021;-67
2022/12/30 03:06:03;;;;;;;11.82;2.38;;;;;;;-143.48;90.62;118439.88;5055830;28;20035;-67
2022/12/30 03:08:42;;;;;;;17.52;3.20;;;;;;;-143.48;90.04;118439.88;5055386;28;20333;-67
2022/12/30 03:11:16;;;;;;;13.50;2.85;;;;;;;-143.48;90.08;118439.88;5055434;28;20025;-67
2022/12/30 03:14:05;;;;;;;13.50;3.08;;;;;;;-143.48;90.06;118439.88;5055271;28;20021;-67
2022/12/30 03:16:44;;;;;;;15.68;3.22;;;;;;;-143.48;89.98;118439.88;5055201;28;20032;-67
2022/12/30 03:19:17;;;;;;;19.17;2.92;;;;;;;-143.48;89.75;118439.88;5055228;28;20519;-68
2022/12/30 03:21:45;;;;;;;18.52;2.80;;;;;;;-143.48;89.84;118439.88;5057405;28;20033;-68
2022/12/30 03:27:07;;;;;;;14.48;3.28;;;;;;;-143.48;89.21;118439.88;5055205;28;20126;-68
2022/12/30 03:29:48;;;;;;;10.93;2.95;;;;;;;-143.48;89.44;118439.88;5055083;28;20029;-67
2022/12/30 03:32:15;;;;;;;19.20;3.13;;;;;;;-143.48;89.39;118439.88;5054595;28;20025;-67
2022/12/30 03:34:41;;;;;;;12.25;2.67;;;;;;;-143.48;88.96;118439.88;5036987;28;20025;-67
2022/12/30 03:37:15;;;;;;;18.42;3.80;;;;;;;-143.48;88.95;118439.88;5054215;28;20051;-67
2022/12/30 03:39:47;;;;;;;24.13;3.33;;;;;;;-143.48;89.28;118439.88;5054397;28;20021;-67
2022/12/30 03:42:13;;;;;;;22.20;3.58;;;;;;;-143.48;89.23;118439.88;5054816;28;20039;-67
2022/12/30 03:44:42;;;;;;;14.43;3.17;;;;;;;-143.48;88.95;118439.88;5054727;28;20032;-66
2022/12/30 03:47:13;;;;;;;18.65;3.35;;;;;;;-143.48;88.98;118439.88;5054699;28;20021;-67
2022/12/30 03:49:40;;;;;;;12.85;3.25;;;;;;;-143.48;88.53;118439.88;5054431;28;20021;-67
2022/12/30 03:52:06;;;;;;;19.80;3.85;;;;;;;-143.48;88.78;118439.88;5054703;28;20024;-67
2022/12/30 03:54:32;;;;;;;13.75;3.30;;;;;;;-143.48;88.85;118439.88;5054402;28;20027;-67
2022/12/30 03:56:57;;;;;;;19.33;3.63;;;;;;;-143.48;88.77;118439.88;5054429;28;20076;-67
2022/12/30 03:59:22;;;;;;;20.25;3.50;;;;;;;-143.48;88.45;118439.88;5054176;28;20025;-67
2022/12/30 04:01:47;;;;;;;16.45;3.20;;;;;;;-143.48;88.73;118439.88;5054003;28;20530;-67
2022/12/30 04:04:13;;;;;;;19.80;3.38;;;;;;;-143.48;88.43;118439.88;5053194;28;20029;-67
2022/12/30 04:06:38;;;;;;;16.73;3.17;;;;;;;-143.48;88.33;118439.88;5053990;28;20025;-68
2022/12/30 04:09:03;;;;;;;20.58;3.65;;;;;;;-143.48;88.35;118439.88;5053715;28;20025;-67
2022/12/30 04:11:29;;;;;;;13.15;2.97;;;;;;;-143.48;88.47;118439.88;5058070;28;20129;-67
2022/12/30 04:13:54;;;;;;;17.33;3.15;;;;;;;-143.48;88.43;118439.88;5053668;28;20024;-67
2022/12/30 04:16:20;;;;;;;16.08;3.17;;;;;;;-143.48;88.27;118439.88;5053584;28;20055;-66
2022/12/30 04:18:45;;;;;;;16.50;3.05;;;;;;;-143.48;88.19;118439.88;5053444;28;20036;-67
2022/12/30 04:21:10;;;;;;;16.15;2.95;;;;;;;-143.48;87.93;118439.88;5053626;28;20495;-66
2022/12/30 04:23:36;;;;;;;12.85;2.65;;;;;;;-143.48;88.15;118439.88;5053760;28;20035;-69
2022/12/30 04:26:01;;;;;;;14.60;2.75;;;;;;;-143.48;88.22;118439.88;5053999;28;20021;-67
2022/12/30 04:28:26;;;;;;;16.67;3.00;;;;;;;-143.48;88.19;118439.88;5053271;28;20044;-67
2022/12/30 04:30:51;;;;;;;15.60;2.88;;;;;;;-143.48;87.92;118439.88;5053517;28;20021;-66
2022/12/30 04:33:17;;;;;;;15.57;3.35;;;;;;;-143.48;87.86;118439.88;5035529;28;20020;-67
2022/12/30 04:35:42;;;;;;;14.07;2.85;;;;;;;-143.48;87.65;118439.88;5053360;28;20056;-67
2022/12/30 04:38:07;;;;;;;15.07;2.55;;;;;;;-143.48;87.85;118439.88;5053049;28;20021;-67
2022/12/30 04:40:33;;;;;;;11.45;2.67;;;;;;;-143.48;87.93;118439.88;5035362;28;20042;-67
2022/12/30 04:42:58;;;;;;;15.80;2.80;;;;;;;-143.48;88.29;118439.88;5053178;28;20100;-67
2022/12/30 04:45:23;;;;;;;17.60;2.83;;;;;;;-143.48;87.94;118439.88;5053213;28;20025;-67
2022/12/30 04:47:48;;;;;;;13.93;2.90;;;;;;;-143.48;88.33;118439.88;5053258;28;20473;-67
2022/12/30 04:50:14;;;;;;;13.27;3.28;;;;;;;-143.48;88.15;118439.88;5053221;28;20060;-67
2022/12/30 04:52:39;;;;;;;17.08;2.55;;;;;;;-143.48;88.11;118439.88;5053063;28;20483;-67
2022/12/30 04:55:05;;;;;;;12.52;2.90;;;;;;;-143.48;88.01;118439.88;5053117;28;20086;-67
2022/12/30 04:57:30;;;;;;;17.30;3.72;;;;;;;-143.48;87.94;118439.88;5035188;28;20511;-67
2022/12/30 04:59:56;;;;;;;15.18;3.40;;;;;;;-143.48;88.22;118439.88;5053110;28;20031;-68
2022/12/30 05:02:21;;;;;;;13.38;2.95;;;;;;;-143.48;87.94;118439.88;5053057;28;20079;-68
2022/12/30 05:04:46;;;;;;;13.57;2.80;;;;;;;-143.48;88.01;118439.88;5052915;28;20110;-67
2022/12/30 05:07:11;;;;;;;11.43;2.70;;;;;;;-143.48;88.10;118439.88;5035088;28;20021;-67
2022/12/30 05:09:37;;;;;;;21.50;2.80;;;;;;;-143.48;88.05;118439.88;5035169;28;20024;-66
2022/12/30 05:12:02;;;;;;;14.13;3.10;;;;;;;-143.48;88.48;118439.88;5053088;28;20060;-66
2022/12/30 05:14:27;;;;;;;21.48;3.30;;;;;;;-143.48;88.25;118439.88;5053024;28;20029;-66
2022/12/30 05:16:53;;;;;;;15.48;2.80;;;;;;;-143.48;88.22;118439.88;5056428;28;20032;-67
2022/12/30 05:19:18;;;;;;;8.85;2.72;;;;;;;-143.48;88.09;118439.88;5056932;28;20427;-66
2022/12/30 05:21:43;;;;;;;12.80;2.80;;;;;;;-143.48;88.20;118439.88;5057047;28;20524;-67
2022/12/30 05:26:53;;;;;;;18.23;2.78;;;;;;;-143.48;88.40;118439.88;5056834;28;20060;-66
2022/12/30 05:29:18;;;;;;;13.60;2.72;;;;;;;-143.48;88.53;118439.88;5038978;28;20017;-66
2022/12/30 05:31:44;;;;;;;14.93;2.92;;;;;;;-143.48;88.71;118439.88;5056855;28;20057;-67
2022/12/30 05:34:09;;;;;;;21.63;3.47;;;;;;;-143.48;88.84;118439.88;5056693;28;20388;-66
2022/12/30 05:36:34;;;;;;;17.67;3.83;;;;;;;-143.48;88.97;118439.88;5038921;28;20052;-67
2022/12/30 05:39:00;;;;;;;13.05;2.67;;;;;;;-143.48;89.19;118439.88;5056872;28;20017;-67
2022/12/30 05:41:25;;;;;;;13.20;2.60;;;;;;;-143.48;88.90;118439.88;5056564;28;20108;-67
2022/12/30 05:43:50;;;;;;;14.55;3.28;;;;;;;-143.48;89.57;118439.88;5056573;28;20021;-67
2022/12/30 05:46:16;;;;;;;18.20;2.88;;;;;;;-143.48;89.47;118439.88;5038622;28;20128;-66
2022/12/30 05:48:41;;;;;;;13.52;2.90;;;;;;;-143.48;89.51;118439.88;5038466;28;20056;-67
2022/12/30 05:51:06;;;;;;;21.23;2.67;;;;;;;-143.48;89.76;118439.88;5056350;28;20454;-68
2022/12/30 05:53:32;;;;;;;13.38;2.90;;;;;;;-143.48;89.49;118439.88;5056239;28;20031;-68
2022/12/30 05:55:58;;;;;;;11.30;3.00;;;;;;;-143.48;89.62;118439.88;5056365;28;20071;-68
2022/12/30 05:58:24;;;;;;;10.15;2.70;;;;;;;-143.48;89.59;118439.88;5056423;28;20036;-68
2022/12/30 06:00:50;;;;;;;13.45;2.90;;;;;;;-143.48;89.77;118439.88;5056197;28;20104;-67
2022/12/30 06:03:15;;;;;;;13.68;3.08;;;;;;;-143.48;90.11;118439.88;5056053;28;20060;-66
2022/12/30 06:05:41;;;;;;;21.38;3.38;;;;;;;-143.48;90.00;118439.88;5056316;28;20057;-67
2022/12/30 06:08:07;;;;;;;18.00;3.00;;;;;;;-143.48;89.82;118439.88;5056068;28;20028;-67
2022/12/30 06:10:32;;;;;;;13.80;2.55;;;;;;;-143.48;89.84;118439.88;5056132;28;20101;-68
2022/12/30 06:12:58;;;;;;;14.68;2.83;;;;;;;-143.48;90.36;118439.88;5056195;28;20025;-66
2022/12/30 06:15:23;;;;;;;16.65;2.90;;;;;;;-143.48;90.22;118439.88;5056000;28;20115;-67
2022/12/30 06:17:48;;;;;;;15.02;3.08;;;;;;;-143.48;89.66;118439.88;5037814;28;20029;-68
2022/12/30 06:20:14;;;;;;;10.52;2.67;;;;;;;-143.48;89.66;118439.88;5055697;28;20029;-66
2022/12/30 06:22:39;;;;;;;11.85;2.70;;;;;;;-143.48;89.86;118439.88;5037853;28;20434;-67
2022/12/30 06:25:05;;;;;;;14.35;2.92;;;;;;;-143.48;90.06;118439.88;5037810;28;20021;-66
2022/12/30 06:27:30;;;;;;;19.27;2.80;;;;;;;-143.48;90.27;118439.88;5055099;28;20041;-66
2022/12/30 06:29:55;;;;;;;16.70;2.95;;;;;;;-143.48;90.58;118439.88;5055713;28;20028;-67
2022/12/30 06:32:21;;;;;;;15.27;2.75;;;;;;;-143.48;90.64;118439.88;5037928;28;20107;-66
2022/12/30 06:34:46;;;;;;;17.05;2.72;;;;;;;-143.48;90.50;118439.88;5055627;28;20023;-66
2022/12/30 06:37:12;;;;;;;14.40;2.75;;;;;;;-143.48;90.63;118439.88;5055534;28;20033;-67
2022/12/30 06:39:37;;;;;;;16.63;2.95;;;;;;;-143.48;90.68;118439.88;5037662;28;20024;-68
2022/12/30 06:42:02;;;;;;;12.63;2.97;;;;;;;-143.48;90.51;118439.88;5037841;28;20082;-67
2022/12/30 06:44:28;;;;;;;14.20;2.88;;;;;;;-143.48;90.81;118439.88;5055301;28;20025;-67
2022/12/30 06:46:53;;;;;;;20.52;3.55;;;;;;;-143.48;90.51;118439.88;5055286;28;20040;-66
2022/12/30 06:49:18;;;;;;;16.63;3.20;;;;;;;-143.48;90.97;118439.88;5055213;28;20025;-66
2022/12/30 06:51:43;;;;;;;13.57;2.95;;;;;;;-143.48;90.48;118439.88;5055345;28;20031;-67
2022/12/30 06:54:09;;;;;;;17.25;3.03;;;;;;;-143.48;90.69;118439.88;5055198;28;20032;-66
2022/12/30 06:56:34;;;;;;;16.35;3.42;;;;;;;-143.48;90.69;118439.88;5055008;28;20021;-66
2022/12/30 06:58:59;;;;;;;22.13;3.95;;;;;;;-143.48;91.18;118439.88;5055115;28;20029;-67
2022/12/30 07:01:25;;;;;;;17.70;3.42;;;;;;;-143.48;90.92;118439.88;5055023;28;20116;-67
2022/12/30 07:03:50;;;;;;;10.95;2.40;;;;;;;-143.48;90.76;118439.88;5054966;28;20064;-67
2022/12/30 07:06:15;;;;;;;14.50;2.65;;;;;;;-143.48;91.45;118439.88;5055030;28;20024;-66
2022/12/30 07:08:40;;;;;;;17.45;3.45;;;;;;;-143.48;91.26;118439.88;5054867;28;20028;-68
2022/12/30 07:11:06;;;;;;;21.52;3.38;;;;;;;-143.48;91.04;118439.88;5055050;28;20064;-66
2022/12/30 07:13:31;;;;;;;22.27;3.95;;;;;;;-143.48;91.12;118439.88;5054817;28;20059;-66
2022/12/30 07:15:56;;;;;;;15.27;2.88;;;;;;;-143.48;91.51;118439.88;5054721;28;20028;-67
2022/12/30 07:18:22;;;;;;;11.93;2.63;;;;;;;-143.48;91.70;118439.88;5054752;28;20372;-66
2022/12/30 07:20:47;;;;;;;14.20;2.70;;;;;;;-143.48;91.31;118439.88;5036742;28;20058;-66
2022/12/30 07:23:12;;;;;;;17.25;2.88;;;;;;;-143.48;91.39;118439.88;5054574;28;20101;-66
2022/12/30 07:25:38;;;;;;;17.42;3.00;;;;;;;-143.48;91.85;118439.88;5054637;28;20025;-66
2022/12/30 07:28:04;;;;;;;19.95;3.80;;;;;;;-143.48;91.94;118439.88;5054353;28;20652;-67
2022/12/30 07:30:31;;;;;;;15.65;3.38;;;;;;;-143.48;91.98;118439.88;5036595;28;20086;-67
2022/12/30 07:32:57;;;;;;;20.45;3.70;;;;;;;-143.48;91.85;118439.88;5054536;28;20043;-66
2022/12/30 07:35:23;;;;;;;19.23;3.10;;;;;;;-143.48;92.04;118439.88;5054410;28;20074;-66
2022/12/30 07:37:51;;;;;;;19.35;3.20;;;;;;;-143.48;91.44;118439.88;5054201;28;20476;-66
2022/12/30 07:40:17;;;;;;;15.48;3.08;;;;;;;-143.48;91.56;118439.88;5053314;28;20024;-66
2022/12/30 07:42:42;;;;;;;13.80;2.58;;;;;;;-143.48;91.93;118439.88;5054298;28;20024;-66
2022/12/30 07:45:08;;;;;;;17.20;3.15;;;;;;;-143.48;92.24;118439.88;5054315;28;20048;-66
2022/12/30 07:47:34;;;;;;;13.95;3.25;;;;;;;-143.48;91.61;118439.88;5056718;28;20029;-67
2022/12/30 07:50:00;;;;;;;14.60;3.42;;;;;;;-143.48;91.88;118439.88;5056247;28;20423;-66
2022/12/30 07:52:26;;;;;;;19.20;3.03;;;;;;;-143.48;91.60;118439.88;5036244;28;20021;-66
2022/12/30 07:54:52;;;;;;;19.73;3.10;;;;;;;-143.48;91.54;118439.88;5054090;28;20384;-66
2022/12/30 07:57:17;;;;;;;17.77;3.17;;;;;;;-143.48;91.13;118439.88;5053562;28;20435;-67
2022/12/30 07:59:42;;;;;;;12.73;3.08;;;;;;;-143.48;91.05;118439.88;5054027;28;20035;-66
2022/12/30 08:02:11;;;;;;;19.48;3.33;;;;;;;-143.48;91.23;118439.88;5055281;28;20048;-66
2022/12/30 08:04:36;;;;;;;20.08;3.55;;;;;;;-143.48;90.92;118439.88;5053984;28;20088;-66
2022/12/30 08:07:01;;;;;;;17.13;2.70;;;;;;;-143.48;91.23;118439.88;5037834;28;20111;-68
2022/12/30 08:09:28;;;;;;;30.65;3.47;;;;;;;-143.48;90.59;118439.88;5040403;28;20032;-69
2022/12/30 08:11:53;;;;;;;15.25;3.33;;;;;;;-143.48;90.56;118439.88;5056056;28;20020;-67
2022/12/30 08:14:19;;;;;;;14.68;3.40;;;;;;;-143.48;90.71;118439.88;5053138;28;20024;-67
2022/12/30 08:16:44;;;;;;;16.08;4.43;;;;;;;-143.48;90.69;118439.88;5053395;28;20085;-67
2022/12/30 08:19:09;;;;;;;13.88;2.60;;;;;;;-143.48;90.75;118439.88;5053695;28;20025;-67
2022/12/30 08:21:35;;;;;;;11.27;3.10;;;;;;;-143.48;90.57;118439.88;5038776;28;20519;-70
2022/12/30 08:24:00;;;;;;;13.93;3.30;;;;;;;-143.48;90.45;118439.88;5052332;28;20074;-66
2022/12/30 08:26:26;;;;;;;14.60;3.22;;;;;;;-143.48;90.39;118439.88;5051849;28;20380;-67
2022/12/30 08:28:51;;;;;;;16.90;3.60;;;;;;;-143.48;90.37;118439.88;5036666;28;20017;-66
2022/12/30 08:31:23;;;;;;;11.73;2.97;;;;;;;-143.48;90.15;118439.88;5051874;28;20103;-67
2022/12/30 08:33:48;;;;;;;18.45;3.00;;;;;;;-143.48;90.35;118439.88;5051566;28;20016;-66
2022/12/30 08:36:16;;;;;;;12.93;3.15;;;;;;;-143.48;90.06;118439.88;5051364;28;20074;-67
2022/12/30 08:38:45;;;;;;;15.07;3.20;;;;;;;-143.48;89.80;118439.88;5051758;28;20059;-66
2022/12/30 08:41:22;;;;;;;12.38;3.42;;;;;;;-143.48;89.80;118439.88;5052260;28;20035;-66
2022/12/30 08:43:48;;;;;;;11.43;2.75;;;;;;;-143.48;89.52;118439.88;5053330;28;20025;-67
2022/12/30 08:46:14;;;;;;;10.88;3.13;;;;;;;-143.48;89.57;118439.88;5054400;28;20078;-67
2022/12/30 08:48:40;;;;;;;12.70;3.60;;;;;;;-143.48;89.70;118439.88;5057919;28;20031;-68
2022/12/30 08:51:06;;;;;;;8.23;3.25;;;;;;;-143.48;89.57;118439.88;5056281;28;20025;-68
2022/12/30 08:53:32;;;;;;;9.20;2.92;;;;;;;-143.48;89.57;118439.88;5055498;28;20020;-66
2022/12/30 08:56:11;;;;;;;14.05;3.13;;;;;;;-143.48;89.54;118439.88;5055993;28;20410;-66
2022/12/30 08:58:36;;;;;;;16.00;3.38;;;;;;;-143.48;88.81;118439.88;5057951;28;20029;-68
2022/12/30 09:01:09;;;;;;;10.80;3.83;;;;;;;-143.48;89.11;118439.88;5070006;28;20028;-66
2022/12/30 09:03:34;;;;;;;11.07;2.72;;;;;;;-143.48;89.03;118439.88;5069636;28;20056;-71
2022/12/30 09:06:00;;;;;;;14.90;2.92;;;;;;;-143.48;88.86;118439.88;5068384;28;20074;-70
2022/12/30 09:08:25;;;;;;;12.98;2.70;;;;;;;-143.48;88.39;118439.88;5069110;28;20039;-73
2022/12/30 09:11:05;;;;;;;10.70;3.13;;;;;;;-143.48;88.63;118439.88;5068402;28;20101;-72
2022/12/30 09:13:32;;;;;;;13.40;3.53;;;;;;;-143.48;88.30;118439.88;5068067;28;20033;-72
2022/12/30 09:15:58;;;;;;;11.60;2.50;;;;;;;-143.48;88.49;118439.88;5070232;28;20025;-74
2022/12/30 09:18:23;;;;;;;9.55;3.42;;;;;;;-143.48;88.35;118439.88;5069688;28;20155;-71
2022/12/30 09:20:49;;;;;;;11.35;3.00;;;;;;;-143.48;88.24;118439.88;5059226;28;20564;-70
2022/12/30 09:23:14;;;;;;;17.00;3.20;;;;;;;-143.48;87.99;118439.88;5057741;28;20052;-69
2022/12/30 09:25:40;;;;;;;14.45;2.65;;;;;;;-143.48;87.94;118439.88;5057431;28;20111;-70
2022/12/30 09:28:05;;;;;;;7.70;2.60;;;;;;;-143.48;88.09;118439.88;5056693;28;20099;-69
2022/12/30 09:30:31;;;;;;;8.18;2.60;;;;;;;-143.48;88.26;118439.88;5055981;28;20017;-69
2022/12/30 09:32:56;;;;;;;12.10;2.67;;;;;;;-143.48;87.81;118439.88;5055825;28;20056;-70
2022/12/30 09:35:21;;;;;;;9.82;2.40;;;;;;;-143.48;87.59;118439.88;5055188;28;20096;-68
2022/12/30 09:37:46;;;;;;;10.48;2.58;;;;;;;-143.48;87.25;118439.88;5054493;28;20056;-68
2022/12/30 09:40:18;;;;;;;9.70;2.80;;;;;;;-143.48;87.32;118439.88;5054135;28;20021;-67
2022/12/30 09:46:01;;;;;;;7.97;2.28;;;;;;;-143.48;86.83;118439.88;5053111;28;20040;-68
2022/12/30 09:48:31;;;;;;;13.30;2.70;;;;;;;-143.48;86.66;118439.88;5052727;28;20499;-67
2022/12/30 09:51:05;;;;;;;9.88;2.63;;;;;;;-143.48;86.64;118439.88;5052624;28;20021;-66
2022/12/30 09:53:55;;;;;;;9.35;2.50;;;;;;;-143.48;86.82;118439.88;5052624;28;20107;-67
2022/12/30 09:56:26;;;;;;;10.85;2.53;;;;;;;-143.48;86.12;118439.88;5052622;28;20028;-66
2022/12/30 09:58:54;;;;;;;5.18;1.90;;;;;;;-143.48;86.23;118439.88;5052458;28;20526;-66
2022/12/30 10:01:26;;;;;;;8.57;2.05;;;;;;;-143.48;85.99;118439.88;5053110;28;20541;-68
2022/12/30 10:03:55;;;;;;;7.57;2.30;;;;;;;-143.48;85.86;118439.88;5056443;28;20055;-65
2022/12/30 10:06:33;;;;;;;7.93;2.42;;;;;;;-143.48;85.79;118439.88;5039063;28;20017;-67
2022/12/30 10:09:17;;;;;;;10.40;2.28;;;;;;;-143.48;85.81;118439.88;5056910;28;20048;-67
2022/12/30 10:11:42;;;;;;;9.10;2.42;;;;;;;-143.48;85.35;118439.88;5062491;28;20095;-70
2022/12/30 10:14:10;;;;;;;8.93;2.50;;;;;;;-143.48;84.73;118439.88;5048431;28;20512;-65
2022/12/30 10:16:41;;;;;;;6.75;2.13;;;;;;;-143.48;84.93;118439.88;5058993;28;20053;-70
2022/12/30 10:19:19;;;;;;;8.00;2.08;;;;;;;-143.48;84.39;118439.88;5058539;28;20024;-65
2022/12/30 10:22:03;;;;;;;10.73;2.33;;;;;;;-143.48;84.09;118439.88;5058437;28;20057;-69
2022/12/30 10:24:51;;;;;;;5.95;1.98;;;;;;;-143.48;84.00;118439.88;5059191;28;20017;-69
2022/12/30 10:27:26;;;;;;;10.15;2.13;;;;;;;-143.48;83.54;118439.88;5058802;28;20049;-65
2022/12/30 10:29:53;;;;;;;5.07;2.20;;;;;;;-143.48;83.59;118439.88;5058319;28;20024;-64
2022/12/30 10:32:21;;;;;;;6.50;1.70;;;;;;;-143.48;82.88;118439.88;5040059;28;20017;-66
2022/12/30 10:34:48;;;;;;;8.68;2.05;;;;;;;-143.48;82.86;118439.88;5056740;28;20115;-64
2022/12/30 10:37:28;;;;;;;5.07;1.55;;;;;;;-143.48;82.75;118439.88;5056484;28;20083;-64
2022/12/30 10:39:53;;;;;;;7.63;1.65;;;;;;;-143.48;82.14;118439.88;5056486;28;20112;-67
2022/12/30 10:43:16;;;;;;;7.38;1.40;;;;;;;-143.48;82.10;118439.88;5056961;28;20052;-68
2022/12/30 10:45:52;;;;;;;11.25;2.00;;;;;;;-143.48;82.02;118439.88;4995370;28;20038;-67
2022/12/30 10:48:40;;;;;;;12.55;2.47;;;;;;;-143.48;82.17;118439.88;4979524;28;20064;-66
2022/12/30 10:51:06;;;;;;;4.88;1.73;;;;;;;-143.48;82.26;118439.88;5036182;28;20126;-64
2022/12/30 10:53:31;;;;;;;10.90;1.50;;;;;;;-143.48;82.07;118439.88;5055347;28;20021;-65
2022/12/30 10:56:00;;;;;;;6.40;1.73;;;;;;;-143.48;81.68;118439.88;5055200;28;20033;-64
2022/12/30 10:58:32;;;;;;;9.40;1.60;;;;;;;-143.48;80.99;118439.88;5055453;28;20043;-63
2022/12/30 11:01:00;;;;;;;4.03;1.38;;;;;;;-143.48;81.54;118439.88;5054545;28;20021;-64
2022/12/30 11:03:34;;;;;;;5.45;1.88;;;;;;;-143.48;81.10;118439.88;5057670;28;20491;-65
2022/12/30 11:06:37;;;;;;;7.55;1.95;;;;;;;-143.48;81.36;118439.88;5055051;28;20032;-65
2022/12/30 11:09:11;;;;;;;9.07;1.75;;;;;;;-143.48;81.18;118439.88;4993645;28;20482;-65
2022/12/30 11:14:43;;;;;;;6.05;1.58;;;;;;;-143.48;80.25;118439.88;5039542;28;20044;-69
2022/12/30 11:17:17;;;;;;;5.82;1.90;;;;;;;-143.48;80.58;118439.88;5054734;28;20079;-68
2022/12/30 11:19:43;;;;;;;4.18;1.55;;;;;;;-143.48;80.23;118439.88;5054245;28;20029;-67
2022/12/30 11:22:10;;;;;;;6.82;1.48;;;;;;;-143.48;80.27;118439.88;5054778;28;20025;-66
2022/12/30 11:24:37;;;;;;;10.07;1.50;;;;;;;-143.48;79.56;118439.88;5036118;28;20384;-67
2022/12/30 11:27:03;;;;;;;12.13;2.00;;;;;;;-143.48;79.41;118439.88;5054851;28;20049;-66
2022/12/30 11:29:33;;;;;;;7.80;1.83;;;;;;;-143.48;79.70;118439.88;5054470;28;20114;-64
2022/12/30 11:31:59;;;;;;;9.98;1.80;;;;;;;-143.48;79.13;118439.88;5054707;28;20065;-66
2022/12/30 11:34:36;;;;;;;6.25;1.70;;;;;;;-143.48;79.38;118439.88;5036569;28;20029;-64
2022/12/30 11:37:33;;;;;;;7.35;1.95;;;;;;;-143.48;79.14;118439.88;5036372;28;20021;-65
2022/12/30 11:40:24;;;;;;;9.18;1.70;;;;;;;-143.48;78.75;118439.88;5048211;28;20045;-66
2022/12/30 11:43:23;;;;;;;9.07;1.85;;;;;;;-143.48;79.27;118439.88;5054552;28;20017;-68
2022/12/30 11:46:08;;;;;;;7.55;1.50;;;;;;;-143.48;78.68;118439.88;5054219;28;20040;-67
2022/12/30 11:48:37;;;;;;;7.18;1.50;;;;;;;-143.48;78.66;118439.88;5054281;28;20104;-67
2022/12/30 11:51:14;;;;;;;6.88;1.33;;;;;;;-143.48;78.68;118439.88;5054424;28;20024;-65
2022/12/30 11:53:40;;;;;;;5.40;2.10;;;;;;;-143.48;78.90;118439.88;5054204;28;20021;-65
2022/12/30 11:56:05;;;;;;;9.13;1.75;;;;;;;-143.48;78.80;118439.88;5054081;28;20071;-66
2022/12/30 11:58:36;;;;;;;6.78;1.83;;;;;;;-143.48;78.25;118439.88;5054114;28;20061;-65
2022/12/30 12:01:06;;;;;;;6.75;1.98;;;;;;;-143.48;78.64;118439.88;5053842;28;20503;-64
2022/12/30 12:03:32;;;;;;;6.70;1.50;;;;;;;-143.48;78.17;118439.88;5054165;28;20507;-65
2022/12/30 12:06:09;;;;;;;7.30;1.60;;;;;;;-143.48;78.29;118439.88;5053741;28;20048;-65
2022/12/30 12:08:42;;;;;;;6.90;1.70;;;;;;;-143.48;78.24;118439.88;5054080;28;20047;-66